East Selah, Washington
Current Conditions -  °F | °C
As of 9:31 PM on Saturday 20 Dec 2014 (Local Time) from K1YT Reporting Station
Light Rain Light Rain  
Wind Chill: 35°   Ceiling: 7000
Heat Index: 39°   Visibility: 0.75mi
Dew Point: 39°   Wind: 6mph
Humidity: 100%   Direction: 320°NW
Pressure: 29.53"   Gusts: NA
Location:  46.6267°N, 120.424°W
Report Text: K1YT 210531Z AUTO 32005KT 3/4SM -RA FG FEW001 SCT009 BKN070 04/04 A2953 RMK AO2 VIS 3/4V1 7/8 SHRAE24RAB24
Loading
Personal Weather Stations






























Interactive Weather Map New forecast layout! Learn more

10-Day Weather Forecast

Advertisements
Track Severe Weather on mobile